sensor_id;sensor_type;location;lat;lon;timestamp;temperature;humidity
57636;DHT22;43465;50.728;4.160;2023-02-18T00:01:44;10.90;99.90
57636;DHT22;43465;50.728;4.160;2023-02-18T00:04:10;10.90;99.90
57636;DHT22;43465;50.728;4.160;2023-02-18T00:06:36;10.90;99.90
57636;DHT22;43465;50.728;4.160;2023-02-18T00:09:04;10.80;99.90
57636;DHT22;43465;50.728;4.160;2023-02-18T00:11:34;10.80;99.90
57636;DHT22;43465;50.728;4.160;2023-02-18T00:14:01;10.80;99.90
57636;DHT22;43465;50.728;4.160;2023-02-18T00:16:28;10.80;99.90
57636;DHT22;43465;50.728;4.160;2023-02-18T00:18:56;10.80;99.90
57636;DHT22;43465;50.728;4.160;2023-02-18T00:21:22;10.80;99.90
57636;DHT22;43465;50.728;4.160;2023-02-18T00:23:48;10.80;99.90
57636;DHT22;43465;50.728;4.160;2023-02-18T00:26:16;10.70;99.90
57636;DHT22;43465;50.728;4.160;2023-02-18T00:28:42;10.70;99.90
57636;DHT22;43465;50.728;4.160;2023-02-18T00:31:14;10.70;99.90
57636;DHT22;43465;50.728;4.160;2023-02-18T00:33:41;10.60;99.90
57636;DHT22;43465;50.728;4.160;2023-02-18T00:36:13;10.70;99.90
57636;DHT22;43465;50.728;4.160;2023-02-18T00:38:42;10.70;99.90
57636;DHT22;43465;50.728;4.160;2023-02-18T00:41:08;10.70;99.90
57636;DHT22;43465;50.728;4.160;2023-02-18T00:43:34;10.70;99.90
57636;DHT22;43465;50.728;4.160;2023-02-18T00:45:59;10.70;99.90
57636;DHT22;43465;50.728;4.160;2023-02-18T00:48:26;10.70;99.90
57636;DHT22;43465;50.728;4.160;2023-02-18T00:50:52;10.80;99.90
57636;DHT22;43465;50.728;4.160;2023-02-18T00:53:18;10.80;99.90
57636;DHT22;43465;50.728;4.160;2023-02-18T00:55:44;10.90;99.90
57636;DHT22;43465;50.728;4.160;2023-02-18T00:58:13;10.80;99.90
57636;DHT22;43465;50.728;4.160;2023-02-18T01:00:39;10.80;99.90
57636;DHT22;43465;50.728;4.160;2023-02-18T01:03:05;10.80;99.90
57636;DHT22;43465;50.728;4.160;2023-02-18T01:05:36;10.80;99.90
57636;DHT22;43465;50.728;4.160;2023-02-18T01:08:02;10.80;99.90
57636;DHT22;43465;50.728;4.160;2023-02-18T01:10:27;10.80;99.90
57636;DHT22;43465;50.728;4.160;2023-02-18T01:12:53;10.80;99.90
57636;DHT22;43465;50.728;4.160;2023-02-18T01:15:20;10.70;99.90
57636;DHT22;43465;50.728;4.160;2023-02-18T01:17:46;10.80;99.90
57636;DHT22;43465;50.728;4.160;2023-02-18T01:20:13;10.90;99.90
57636;DHT22;43465;50.728;4.160;2023-02-18T01:22:40;11.00;99.90
57636;DHT22;43465;50.728;4.160;2023-02-18T01:25:06;11.10;99.90
57636;DHT22;43465;50.728;4.160;2023-02-18T01:27:32;11.20;99.90
57636;DHT22;43465;50.728;4.160;2023-02-18T01:29:58;11.30;99.90
57636;DHT22;43465;50.728;4.160;2023-02-18T01:32:23;11.40;99.90
57636;DHT22;43465;50.728;4.160;2023-02-18T01:34:49;11.40;99.90
57636;DHT22;43465;50.728;4.160;2023-02-18T01:37:15;11.30;99.90
57636;DHT22;43465;50.728;4.160;2023-02-18T01:39:40;11.40;99.90
57636;DHT22;43465;50.728;4.160;2023-02-18T01:42:06;11.30;99.90
57636;DHT22;43465;50.728;4.160;2023-02-18T01:44:33;11.30;99.90
57636;DHT22;43465;50.728;4.160;2023-02-18T01:46:59;11.40;99.90
57636;DHT22;43465;50.728;4.160;2023-02-18T01:49:28;11.40;99.90
57636;DHT22;43465;50.728;4.160;2023-02-18T01:52:16;11.40;99.90
57636;DHT22;43465;50.728;4.160;2023-02-18T01:54:46;11.40;99.90
57636;DHT22;43465;50.728;4.160;2023-02-18T01:57:17;11.50;99.90
57636;DHT22;43465;50.728;4.160;2023-02-18T01:59:51;11.40;99.90
57636;DHT22;43465;50.728;4.160;2023-02-18T02:02:20;11.40;99.90
57636;DHT22;43465;50.728;4.160;2023-02-18T02:04:46;11.40;99.90
57636;DHT22;43465;50.728;4.160;2023-02-18T02:07:12;11.40;99.90
57636;DHT22;43465;50.728;4.160;2023-02-18T02:09:39;11.40;99.90
57636;DHT22;43465;50.728;4.160;2023-02-18T02:12:24;11.40;99.90
57636;DHT22;43465;50.728;4.160;2023-02-18T02:17:31;11.40;99.90
57636;DHT22;43465;50.728;4.160;2023-02-18T02:37:49;11.60;99.90
57636;DHT22;43465;50.728;4.160;2023-02-18T02:40:56;11.50;99.90
57636;DHT22;43465;50.728;4.160;2023-02-18T02:46:29;11.40;99.90
57636;DHT22;43465;50.728;4.160;2023-02-18T02:54:45;11.30;99.90
57636;DHT22;43465;50.728;4.160;2023-02-18T03:00:18;11.30;99.90
57636;DHT22;43465;50.728;4.160;2023-02-18T03:11:08;11.30;99.90
57636;DHT22;43465;50.728;4.160;2023-02-18T03:21:35;11.30;99.90
57636;DHT22;43465;50.728;4.160;2023-02-18T03:24:16;11.20;99.90
57636;DHT22;43465;50.728;4.160;2023-02-18T03:26:49;11.20;99.90
57636;DHT22;43465;50.728;4.160;2023-02-18T03:29:17;11.30;99.90
57636;DHT22;43465;50.728;4.160;2023-02-18T03:31:46;11.30;99.90
57636;DHT22;43465;50.728;4.160;2023-02-18T03:34:17;11.30;99.90
57636;DHT22;43465;50.728;4.160;2023-02-18T03:36:44;11.30;99.90
57636;DHT22;43465;50.728;4.160;2023-02-18T03:39:14;11.30;99.90
57636;DHT22;43465;50.728;4.160;2023-02-18T03:41:41;11.30;99.90
57636;DHT22;43465;50.728;4.160;2023-02-18T03:44:08;11.30;99.90
57636;DHT22;43465;50.728;4.160;2023-02-18T03:46:34;11.20;99.90
57636;DHT22;43465;50.728;4.160;2023-02-18T03:49:01;11.20;99.90
57636;DHT22;43465;50.728;4.160;2023-02-18T03:51:26;11.20;99.90
57636;DHT22;43465;50.728;4.160;2023-02-18T03:53:52;11.20;99.90
57636;DHT22;43465;50.728;4.160;2023-02-18T03:56:19;11.20;99.90
57636;DHT22;43465;50.728;4.160;2023-02-18T03:58:45;11.20;99.90
57636;DHT22;43465;50.728;4.160;2023-02-18T04:01:11;11.20;99.90
57636;DHT22;43465;50.728;4.160;2023-02-18T04:03:37;11.20;99.90
57636;DHT22;43465;50.728;4.160;2023-02-18T04:06:02;11.20;99.90
57636;DHT22;43465;50.728;4.160;2023-02-18T04:08:28;11.10;99.90
57636;DHT22;43465;50.728;4.160;2023-02-18T04:10:54;11.10;99.90
57636;DHT22;43465;50.728;4.160;2023-02-18T04:13:19;11.10;99.90
57636;DHT22;43465;50.728;4.160;2023-02-18T04:15:48;11.10;99.90
57636;DHT22;43465;50.728;4.160;2023-02-18T04:18:13;11.10;99.90
57636;DHT22;43465;50.728;4.160;2023-02-18T04:20:39;11.10;99.90
57636;DHT22;43465;50.728;4.160;2023-02-18T04:23:05;11.10;99.90
57636;DHT22;43465;50.728;4.160;2023-02-18T04:25:31;11.10;99.90
57636;DHT22;43465;50.728;4.160;2023-02-18T04:27:56;11.10;99.90
57636;DHT22;43465;50.728;4.160;2023-02-18T04:30:22;11.10;99.90
57636;DHT22;43465;50.728;4.160;2023-02-18T04:32:48;11.10;99.90
57636;DHT22;43465;50.728;4.160;2023-02-18T04:35:13;11.10;99.90
57636;DHT22;43465;50.728;4.160;2023-02-18T04:37:39;11.10;99.90
57636;DHT22;43465;50.728;4.160;2023-02-18T04:40:05;11.00;99.90
57636;DHT22;43465;50.728;4.160;2023-02-18T04:42:31;11.00;99.90
57636;DHT22;43465;50.728;4.160;2023-02-18T04:44:57;11.00;99.90
57636;DHT22;43465;50.728;4.160;2023-02-18T04:47:22;11.10;99.90
57636;DHT22;43465;50.728;4.160;2023-02-18T04:49:48;11.10;99.90
57636;DHT22;43465;50.728;4.160;2023-02-18T04:52:14;11.10;99.90
57636;DHT22;43465;50.728;4.160;2023-02-18T04:54:40;11.00;99.90
57636;DHT22;43465;50.728;4.160;2023-02-18T04:57:05;11.00;99.90
57636;DHT22;43465;50.728;4.160;2023-02-18T04:59:31;11.00;99.90
57636;DHT22;43465;50.728;4.160;2023-02-18T05:01:56;11.00;99.90
57636;DHT22;43465;50.728;4.160;2023-02-18T05:04:22;11.00;99.90
57636;DHT22;43465;50.728;4.160;2023-02-18T05:06:48;11.00;99.90
57636;DHT22;43465;50.728;4.160;2023-02-18T05:09:13;11.00;99.90
57636;DHT22;43465;50.728;4.160;2023-02-18T05:11:39;10.90;99.90
57636;DHT22;43465;50.728;4.160;2023-02-18T05:14:05;10.80;99.90
57636;DHT22;43465;50.728;4.160;2023-02-18T05:16:31;10.80;99.90
57636;DHT22;43465;50.728;4.160;2023-02-18T05:18:56;10.80;99.90
57636;DHT22;43465;50.728;4.160;2023-02-18T05:21:22;10.80;99.90
57636;DHT22;43465;50.728;4.160;2023-02-18T05:23:48;10.80;99.90
57636;DHT22;43465;50.728;4.160;2023-02-18T05:26:14;10.80;99.90
57636;DHT22;43465;50.728;4.160;2023-02-18T05:28:39;10.80;99.90
57636;DHT22;43465;50.728;4.160;2023-02-18T05:31:05;10.80;99.90
57636;DHT22;43465;50.728;4.160;2023-02-18T05:33:30;10.90;99.90
57636;DHT22;43465;50.728;4.160;2023-02-18T05:35:56;10.80;99.90
57636;DHT22;43465;50.728;4.160;2023-02-18T05:38:22;10.80;99.90
57636;DHT22;43465;50.728;4.160;2023-02-18T05:40:47;10.80;99.90
57636;DHT22;43465;50.728;4.160;2023-02-18T05:43:14;10.80;99.90
57636;DHT22;43465;50.728;4.160;2023-02-18T05:45:39;10.80;99.90
57636;DHT22;43465;50.728;4.160;2023-02-18T05:48:05;10.80;99.90
57636;DHT22;43465;50.728;4.160;2023-02-18T05:50:31;10.80;99.90
57636;DHT22;43465;50.728;4.160;2023-02-18T05:52:57;10.70;99.90
57636;DHT22;43465;50.728;4.160;2023-02-18T05:55:22;10.70;99.90
57636;DHT22;43465;50.728;4.160;2023-02-18T05:57:49;10.70;99.90
57636;DHT22;43465;50.728;4.160;2023-02-18T06:00:15;10.80;99.90
57636;DHT22;43465;50.728;4.160;2023-02-18T06:02:41;10.80;99.90
57636;DHT22;43465;50.728;4.160;2023-02-18T06:05:07;10.70;99.90
57636;DHT22;43465;50.728;4.160;2023-02-18T06:07:33;10.70;99.90
57636;DHT22;43465;50.728;4.160;2023-02-18T06:09:59;10.70;99.90
57636;DHT22;43465;50.728;4.160;2023-02-18T06:12:25;10.80;99.90
57636;DHT22;43465;50.728;4.160;2023-02-18T06:14:50;10.80;99.90
57636;DHT22;43465;50.728;4.160;2023-02-18T06:17:16;10.70;99.90
57636;DHT22;43465;50.728;4.160;2023-02-18T06:19:43;10.70;99.90
57636;DHT22;43465;50.728;4.160;2023-02-18T06:22:10;10.70;99.90
57636;DHT22;43465;50.728;4.160;2023-02-18T06:24:36;10.80;99.90
57636;DHT22;43465;50.728;4.160;2023-02-18T06:27:02;10.80;99.90
57636;DHT22;43465;50.728;4.160;2023-02-18T06:29:28;10.90;99.90
57636;DHT22;43465;50.728;4.160;2023-02-18T06:31:56;10.80;99.90
57636;DHT22;43465;50.728;4.160;2023-02-18T06:34:21;10.80;99.90
57636;DHT22;43465;50.728;4.160;2023-02-18T06:36:47;10.80;99.90
57636;DHT22;43465;50.728;4.160;2023-02-18T06:39:13;10.80;99.90
57636;DHT22;43465;50.728;4.160;2023-02-18T06:41:39;10.80;99.90
57636;DHT22;43465;50.728;4.160;2023-02-18T06:44:05;10.80;99.90
57636;DHT22;43465;50.728;4.160;2023-02-18T06:46:30;10.70;99.90
57636;DHT22;43465;50.728;4.160;2023-02-18T06:48:56;10.80;99.90
57636;DHT22;43465;50.728;4.160;2023-02-18T06:51:22;10.80;99.90
57636;DHT22;43465;50.728;4.160;2023-02-18T06:53:47;10.80;99.90
57636;DHT22;43465;50.728;4.160;2023-02-18T06:56:13;10.80;99.90
57636;DHT22;43465;50.728;4.160;2023-02-18T06:58:39;10.80;99.90
57636;DHT22;43465;50.728;4.160;2023-02-18T07:01:04;10.80;99.90
57636;DHT22;43465;50.728;4.160;2023-02-18T07:03:30;10.80;99.90
57636;DHT22;43465;50.728;4.160;2023-02-18T07:05:56;10.80;99.90
57636;DHT22;43465;50.728;4.160;2023-02-18T07:08:21;10.80;99.90
57636;DHT22;43465;50.728;4.160;2023-02-18T07:10:47;10.80;99.90
57636;DHT22;43465;50.728;4.160;2023-02-18T07:13:14;10.80;99.90
57636;DHT22;43465;50.728;4.160;2023-02-18T07:15:40;10.80;99.90
57636;DHT22;43465;50.728;4.160;2023-02-18T07:18:05;10.80;99.90
57636;DHT22;43465;50.728;4.160;2023-02-18T07:20:31;10.70;99.90
57636;DHT22;43465;50.728;4.160;2023-02-18T07:22:57;10.70;99.90
57636;DHT22;43465;50.728;4.160;2023-02-18T07:25:23;10.70;99.90
57636;DHT22;43465;50.728;4.160;2023-02-18T07:27:50;10.70;99.90
57636;DHT22;43465;50.728;4.160;2023-02-18T07:30:16;10.80;99.90
57636;DHT22;43465;50.728;4.160;2023-02-18T07:32:42;10.80;99.90
57636;DHT22;43465;50.728;4.160;2023-02-18T07:35:10;10.90;99.90
57636;DHT22;43465;50.728;4.160;2023-02-18T07:37:37;10.80;99.90
57636;DHT22;43465;50.728;4.160;2023-02-18T07:40:03;10.80;99.90
57636;DHT22;43465;50.728;4.160;2023-02-18T07:42:28;10.80;99.90
57636;DHT22;43465;50.728;4.160;2023-02-18T07:44:54;10.90;99.90
57636;DHT22;43465;50.728;4.160;2023-02-18T07:47:20;10.90;99.90
57636;DHT22;43465;50.728;4.160;2023-02-18T07:49:46;10.90;99.90
57636;DHT22;43465;50.728;4.160;2023-02-18T07:52:12;10.90;99.90
57636;DHT22;43465;50.728;4.160;2023-02-18T07:54:38;10.90;99.90
57636;DHT22;43465;50.728;4.160;2023-02-18T07:57:04;11.00;99.90
57636;DHT22;43465;50.728;4.160;2023-02-18T07:59:30;11.00;99.90
57636;DHT22;43465;50.728;4.160;2023-02-18T08:01:55;11.00;99.90
57636;DHT22;43465;50.728;4.160;2023-02-18T08:04:21;11.00;99.90
57636;DHT22;43465;50.728;4.160;2023-02-18T08:06:48;11.00;99.90
57636;DHT22;43465;50.728;4.160;2023-02-18T08:09:15;11.00;99.90
57636;DHT22;43465;50.728;4.160;2023-02-18T08:11:41;10.90;99.90
57636;DHT22;43465;50.728;4.160;2023-02-18T08:14:07;10.90;99.90
57636;DHT22;43465;50.728;4.160;2023-02-18T08:16:33;11.00;99.90
57636;DHT22;43465;50.728;4.160;2023-02-18T08:18:59;11.00;99.90
57636;DHT22;43465;50.728;4.160;2023-02-18T08:21:28;10.90;99.90
57636;DHT22;43465;50.728;4.160;2023-02-18T08:23:54;10.90;99.90
57636;DHT22;43465;50.728;4.160;2023-02-18T08:26:20;10.90;99.90
57636;DHT22;43465;50.728;4.160;2023-02-18T08:28:46;10.90;99.90
57636;DHT22;43465;50.728;4.160;2023-02-18T08:31:31;11.00;99.90
57636;DHT22;43465;50.728;4.160;2023-02-18T08:33:58;11.10;99.90
57636;DHT22;43465;50.728;4.160;2023-02-18T08:36:25;11.10;99.90
57636;DHT22;43465;50.728;4.160;2023-02-18T08:38:51;11.10;99.90
57636;DHT22;43465;50.728;4.160;2023-02-18T08:41:17;11.10;99.90
57636;DHT22;43465;50.728;4.160;2023-02-18T08:43:43;11.10;99.90
57636;DHT22;43465;50.728;4.160;2023-02-18T08:46:09;11.20;99.90
57636;DHT22;43465;50.728;4.160;2023-02-18T08:48:35;11.10;99.90
57636;DHT22;43465;50.728;4.160;2023-02-18T08:51:14;11.20;99.90
57636;DHT22;43465;50.728;4.160;2023-02-18T08:53:40;11.20;99.90
57636;DHT22;43465;50.728;4.160;2023-02-18T08:56:07;11.20;99.90
57636;DHT22;43465;50.728;4.160;2023-02-18T08:58:33;11.20;99.90
57636;DHT22;43465;50.728;4.160;2023-02-18T09:01:04;11.20;99.90
57636;DHT22;43465;50.728;4.160;2023-02-18T09:03:30;11.20;99.90
57636;DHT22;43465;50.728;4.160;2023-02-18T09:05:56;11.20;99.90
57636;DHT22;43465;50.728;4.160;2023-02-18T09:08:21;11.20;99.90
57636;DHT22;43465;50.728;4.160;2023-02-18T09:10:47;11.20;99.90
57636;DHT22;43465;50.728;4.160;2023-02-18T09:13:13;11.20;99.90
57636;DHT22;43465;50.728;4.160;2023-02-18T09:15:38;11.20;99.90
57636;DHT22;43465;50.728;4.160;2023-02-18T09:18:04;11.20;99.90
57636;DHT22;43465;50.728;4.160;2023-02-18T09:20:30;11.20;99.90
57636;DHT22;43465;50.728;4.160;2023-02-18T09:22:55;11.20;99.90
57636;DHT22;43465;50.728;4.160;2023-02-18T09:25:22;11.20;99.90
57636;DHT22;43465;50.728;4.160;2023-02-18T09:27:48;11.10;99.90
57636;DHT22;43465;50.728;4.160;2023-02-18T09:30:13;11.20;99.90
57636;DHT22;43465;50.728;4.160;2023-02-18T09:32:39;11.20;99.90
57636;DHT22;43465;50.728;4.160;2023-02-18T09:35:05;11.10;99.90
57636;DHT22;43465;50.728;4.160;2023-02-18T09:37:30;11.20;99.90
57636;DHT22;43465;50.728;4.160;2023-02-18T09:39:56;11.20;99.90
57636;DHT22;43465;50.728;4.160;2023-02-18T09:42:27;11.30;99.90
57636;DHT22;43465;50.728;4.160;2023-02-18T09:44:59;11.40;99.90
57636;DHT22;43465;50.728;4.160;2023-02-18T09:47:29;11.40;99.90
57636;DHT22;43465;50.728;4.160;2023-02-18T09:50:20;11.40;99.90
57636;DHT22;43465;50.728;4.160;2023-02-18T09:52:46;11.40;99.90
57636;DHT22;43465;50.728;4.160;2023-02-18T09:57:44;11.40;99.90
57636;DHT22;43465;50.728;4.160;2023-02-18T10:00:24;11.50;99.90
57636;DHT22;43465;50.728;4.160;2023-02-18T10:06:03;11.60;99.90
57636;DHT22;43465;50.728;4.160;2023-02-18T10:08:43;11.60;99.90
57636;DHT22;43465;50.728;4.160;2023-02-18T10:11:32;11.50;99.90
57636;DHT22;43465;50.728;4.160;2023-02-18T10:14:01;11.60;99.90
57636;DHT22;43465;50.728;4.160;2023-02-18T10:16:27;11.60;99.90
57636;DHT22;43465;50.728;4.160;2023-02-18T10:18:56;11.60;99.90
57636;DHT22;43465;50.728;4.160;2023-02-18T10:21:28;11.50;99.90
57636;DHT22;43465;50.728;4.160;2023-02-18T10:26:32;11.60;99.90
57636;DHT22;43465;50.728;4.160;2023-02-18T10:28:58;11.60;99.90
57636;DHT22;43465;50.728;4.160;2023-02-18T10:31:36;11.70;99.90
57636;DHT22;43465;50.728;4.160;2023-02-18T10:37:00;11.70;99.90
57636;DHT22;43465;50.728;4.160;2023-02-18T10:39:45;11.80;99.90
57636;DHT22;43465;50.728;4.160;2023-02-18T10:42:17;11.90;99.90
57636;DHT22;43465;50.728;4.160;2023-02-18T10:52:57;11.90;99.90
57636;DHT22;43465;50.728;4.160;2023-02-18T10:55:39;11.90;99.90
57636;DHT22;43465;50.728;4.160;2023-02-18T11:00:50;11.80;99.90
57636;DHT22;43465;50.728;4.160;2023-02-18T11:03:19;12.00;99.90
57636;DHT22;43465;50.728;4.160;2023-02-18T11:05:46;12.00;99.90
57636;DHT22;43465;50.728;4.160;2023-02-18T11:08:27;12.00;99.90
57636;DHT22;43465;50.728;4.160;2023-02-18T11:10:54;12.10;99.90
57636;DHT22;43465;50.728;4.160;2023-02-18T11:13:28;12.10;99.90
57636;DHT22;43465;50.728;4.160;2023-02-18T11:15:59;12.10;99.90
57636;DHT22;43465;50.728;4.160;2023-02-18T11:20:59;12.10;99.90
57636;DHT22;43465;50.728;4.160;2023-02-18T11:23:24;12.20;99.90
57636;DHT22;43465;50.728;4.160;2023-02-18T11:26:02;12.20;99.90
57636;DHT22;43465;50.728;4.160;2023-02-18T11:28:44;12.20;99.90
57636;DHT22;43465;50.728;4.160;2023-02-18T11:31:20;12.10;99.90
57636;DHT22;43465;50.728;4.160;2023-02-18T11:33:56;12.20;99.90
57636;DHT22;43465;50.728;4.160;2023-02-18T11:36:32;12.10;99.90
57636;DHT22;43465;50.728;4.160;2023-02-18T11:39:20;12.20;99.90
57636;DHT22;43465;50.728;4.160;2023-02-18T11:41:54;12.20;99.90
57636;DHT22;43465;50.728;4.160;2023-02-18T11:47:04;12.30;99.90
57636;DHT22;43465;50.728;4.160;2023-02-18T11:49:31;12.30;99.90
57636;DHT22;43465;50.728;4.160;2023-02-18T11:54:42;12.40;99.90
57636;DHT22;43465;50.728;4.160;2023-02-18T11:57:22;12.30;99.90
57636;DHT22;43465;50.728;4.160;2023-02-18T11:59:51;12.40;99.90
57636;DHT22;43465;50.728;4.160;2023-02-18T12:02:35;12.30;99.90
57636;DHT22;43465;50.728;4.160;2023-02-18T12:05:15;12.40;99.90
57636;DHT22;43465;50.728;4.160;2023-02-18T12:07:44;12.40;99.90
57636;DHT22;43465;50.728;4.160;2023-02-18T12:10:35;12.40;99.90
57636;DHT22;43465;50.728;4.160;2023-02-18T12:13:23;12.40;99.90
57636;DHT22;43465;50.728;4.160;2023-02-18T12:54:53;12.50;99.90
57636;DHT22;43465;50.728;4.160;2023-02-18T13:08:34;12.50;99.90
57636;DHT22;43465;50.728;4.160;2023-02-18T13:11:38;12.50;99.90
57636;DHT22;43465;50.728;4.160;2023-02-18T13:14:17;12.50;99.90
57636;DHT22;43465;50.728;4.160;2023-02-18T13:16:47;12.40;99.90
57636;DHT22;43465;50.728;4.160;2023-02-18T13:19:25;12.40;99.90
57636;DHT22;43465;50.728;4.160;2023-02-18T13:22:05;12.30;99.90
57636;DHT22;43465;50.728;4.160;2023-02-18T13:24:37;12.30;99.90
57636;DHT22;43465;50.728;4.160;2023-02-18T13:27:18;12.30;99.90
57636;DHT22;43465;50.728;4.160;2023-02-18T13:30:00;12.30;99.90
57636;DHT22;43465;50.728;4.160;2023-02-18T13:40:46;12.10;99.90
57636;DHT22;43465;50.728;4.160;2023-02-18T13:43:28;12.10;99.90
57636;DHT22;43465;50.728;4.160;2023-02-18T13:46:10;12.10;99.90
57636;DHT22;43465;50.728;4.160;2023-02-18T13:49:05;12.10;99.90
57636;DHT22;43465;50.728;4.160;2023-02-18T13:51:41;12.10;99.90
57636;DHT22;43465;50.728;4.160;2023-02-18T13:56:44;12.00;99.90
57636;DHT22;43465;50.728;4.160;2023-02-18T13:59:17;12.00;99.90
57636;DHT22;43465;50.728;4.160;2023-02-18T14:01:46;12.10;99.90
57636;DHT22;43465;50.728;4.160;2023-02-18T14:09:50;12.00;99.90
57636;DHT22;43465;50.728;4.160;2023-02-18T14:12:36;12.00;99.90
57636;DHT22;43465;50.728;4.160;2023-02-18T14:17:48;12.10;99.90
57636;DHT22;43465;50.728;4.160;2023-02-18T14:22:50;12.10;99.90
57636;DHT22;43465;50.728;4.160;2023-02-18T14:25:39;12.10;99.90
57636;DHT22;43465;50.728;4.160;2023-02-18T14:28:35;12.20;99.90
57636;DHT22;43465;50.728;4.160;2023-02-18T14:31:06;12.10;99.90
57636;DHT22;43465;50.728;4.160;2023-02-18T14:36:35;12.00;99.90
57636;DHT22;43465;50.728;4.160;2023-02-18T14:39:33;12.00;99.90
57636;DHT22;43465;50.728;4.160;2023-02-18T14:42:27;12.00;99.90
57636;DHT22;43465;50.728;4.160;2023-02-18T14:45:21;12.00;99.90
57636;DHT22;43465;50.728;4.160;2023-02-18T14:50:42;11.90;99.90
57636;DHT22;43465;50.728;4.160;2023-02-18T14:53:14;12.00;99.90
57636;DHT22;43465;50.728;4.160;2023-02-18T14:55:49;12.00;99.90
57636;DHT22;43465;50.728;4.160;2023-02-18T14:58:29;12.00;99.90
57636;DHT22;43465;50.728;4.160;2023-02-18T15:00:56;11.90;99.90
57636;DHT22;43465;50.728;4.160;2023-02-18T15:03:25;11.70;99.90
57636;DHT22;43465;50.728;4.160;2023-02-18T15:05:51;11.70;99.90
57636;DHT22;43465;50.728;4.160;2023-02-18T15:08:19;11.50;99.90
57636;DHT22;43465;50.728;4.160;2023-02-18T15:13:24;11.40;99.90
57636;DHT22;43465;50.728;4.160;2023-02-18T15:15:56;11.40;99.90
57636;DHT22;43465;50.728;4.160;2023-02-18T15:18:32;11.40;99.90
57636;DHT22;43465;50.728;4.160;2023-02-18T15:21:03;11.30;99.90
57636;DHT22;43465;50.728;4.160;2023-02-18T15:23:30;11.30;99.90
57636;DHT22;43465;50.728;4.160;2023-02-18T15:25:58;11.30;99.90
57636;DHT22;43465;50.728;4.160;2023-02-18T15:28:30;11.40;99.90
57636;DHT22;43465;50.728;4.160;2023-02-18T15:30:58;11.40;99.90
57636;DHT22;43465;50.728;4.160;2023-02-18T15:33:25;11.30;99.90
57636;DHT22;43465;50.728;4.160;2023-02-18T15:35:51;11.40;99.90
57636;DHT22;43465;50.728;4.160;2023-02-18T15:38:24;11.40;99.90
57636;DHT22;43465;50.728;4.160;2023-02-18T15:40:51;11.40;99.90
57636;DHT22;43465;50.728;4.160;2023-02-18T15:43:21;11.40;99.90
57636;DHT22;43465;50.728;4.160;2023-02-18T15:45:49;11.40;99.90
57636;DHT22;43465;50.728;4.160;2023-02-18T15:50:55;11.40;99.90
57636;DHT22;43465;50.728;4.160;2023-02-18T15:53:22;11.30;99.90
57636;DHT22;43465;50.728;4.160;2023-02-18T15:55:51;11.20;99.90
57636;DHT22;43465;50.728;4.160;2023-02-18T15:58:28;11.20;99.90
57636;DHT22;43465;50.728;4.160;2023-02-18T16:00:55;11.20;99.90
57636;DHT22;43465;50.728;4.160;2023-02-18T16:03:25;11.10;99.90
57636;DHT22;43465;50.728;4.160;2023-02-18T16:08:34;11.10;99.90
57636;DHT22;43465;50.728;4.160;2023-02-18T16:11:03;11.10;99.90
57636;DHT22;43465;50.728;4.160;2023-02-18T16:13:31;11.20;99.90
57636;DHT22;43465;50.728;4.160;2023-02-18T16:15:57;11.20;99.90
57636;DHT22;43465;50.728;4.160;2023-02-18T16:18:30;11.10;99.90
57636;DHT22;43465;50.728;4.160;2023-02-18T16:21:05;11.10;99.90
57636;DHT22;43465;50.728;4.160;2023-02-18T16:23:50;11.10;99.90
57636;DHT22;43465;50.728;4.160;2023-02-18T16:26:41;11.10;99.90
57636;DHT22;43465;50.728;4.160;2023-02-18T16:29:14;11.10;99.90
57636;DHT22;43465;50.728;4.160;2023-02-18T16:31:41;11.10;99.90
57636;DHT22;43465;50.728;4.160;2023-02-18T16:34:06;11.10;99.90
57636;DHT22;43465;50.728;4.160;2023-02-18T16:36:32;11.10;99.90
57636;DHT22;43465;50.728;4.160;2023-02-18T16:38:58;11.10;99.90
57636;DHT22;43465;50.728;4.160;2023-02-18T16:41:26;11.10;99.90
57636;DHT22;43465;50.728;4.160;2023-02-18T16:43:53;11.20;99.90
57636;DHT22;43465;50.728;4.160;2023-02-18T16:46:21;11.20;99.90
57636;DHT22;43465;50.728;4.160;2023-02-18T16:48:52;11.10;99.90
57636;DHT22;43465;50.728;4.160;2023-02-18T16:51:40;11.10;99.90
57636;DHT22;43465;50.728;4.160;2023-02-18T16:54:10;11.10;99.90
57636;DHT22;43465;50.728;4.160;2023-02-18T16:56:36;11.00;99.90
57636;DHT22;43465;50.728;4.160;2023-02-18T16:59:02;10.90;99.90
57636;DHT22;43465;50.728;4.160;2023-02-18T17:01:29;10.80;99.90
57636;DHT22;43465;50.728;4.160;2023-02-18T17:03:59;10.80;99.90
57636;DHT22;43465;50.728;4.160;2023-02-18T17:06:24;10.80;99.90
57636;DHT22;43465;50.728;4.160;2023-02-18T17:08:50;10.80;99.90
57636;DHT22;43465;50.728;4.160;2023-02-18T17:11:20;10.80;99.90
57636;DHT22;43465;50.728;4.160;2023-02-18T17:13:47;10.80;99.90
57636;DHT22;43465;50.728;4.160;2023-02-18T17:16:13;10.80;99.90
57636;DHT22;43465;50.728;4.160;2023-02-18T17:18:39;10.80;99.90
57636;DHT22;43465;50.728;4.160;2023-02-18T17:21:16;10.90;99.90
57636;DHT22;43465;50.728;4.160;2023-02-18T17:23:42;11.00;99.90
57636;DHT22;43465;50.728;4.160;2023-02-18T17:26:21;11.10;99.90
57636;DHT22;43465;50.728;4.160;2023-02-18T17:28:49;11.20;99.90
57636;DHT22;43465;50.728;4.160;2023-02-18T17:31:18;11.30;99.90
57636;DHT22;43465;50.728;4.160;2023-02-18T17:33:45;11.40;99.90
57636;DHT22;43465;50.728;4.160;2023-02-18T17:36:11;11.40;99.90
57636;DHT22;43465;50.728;4.160;2023-02-18T17:38:38;11.50;99.90
57636;DHT22;43465;50.728;4.160;2023-02-18T17:41:04;11.50;99.90
57636;DHT22;43465;50.728;4.160;2023-02-18T17:43:30;11.50;99.90
57636;DHT22;43465;50.728;4.160;2023-02-18T17:45:56;11.50;99.90
57636;DHT22;43465;50.728;4.160;2023-02-18T17:48:22;11.50;99.90
57636;DHT22;43465;50.728;4.160;2023-02-18T17:50:48;11.60;99.90
57636;DHT22;43465;50.728;4.160;2023-02-18T17:53:15;11.60;99.90
57636;DHT22;43465;50.728;4.160;2023-02-18T17:55:42;11.60;99.90
57636;DHT22;43465;50.728;4.160;2023-02-18T17:58:09;11.60;99.90
57636;DHT22;43465;50.728;4.160;2023-02-18T18:00:37;11.60;99.90
57636;DHT22;43465;50.728;4.160;2023-02-18T18:03:04;11.50;99.90
57636;DHT22;43465;50.728;4.160;2023-02-18T18:05:30;11.50;99.90
57636;DHT22;43465;50.728;4.160;2023-02-18T18:07:57;11.50;99.90
57636;DHT22;43465;50.728;4.160;2023-02-18T18:10:25;11.50;99.90
57636;DHT22;43465;50.728;4.160;2023-02-18T18:12:57;11.50;99.90
57636;DHT22;43465;50.728;4.160;2023-02-18T18:15:27;11.40;99.90
57636;DHT22;43465;50.728;4.160;2023-02-18T18:17:55;11.40;99.90
57636;DHT22;43465;50.728;4.160;2023-02-18T18:20:21;11.30;99.90
57636;DHT22;43465;50.728;4.160;2023-02-18T18:22:48;11.30;99.90
57636;DHT22;43465;50.728;4.160;2023-02-18T18:25:27;11.30;99.90
57636;DHT22;43465;50.728;4.160;2023-02-18T18:27:53;11.30;99.90